createdAt,value
2017-07-20T00:01:34.911Z,6.40
2017-07-20T00:04:02.704Z,7.37
2017-07-20T00:06:30.465Z,7.10
2017-07-20T00:08:58.229Z,6.93
2017-07-20T00:11:25.993Z,8.70
2017-07-20T00:13:53.654Z,6.90
2017-07-20T00:16:21.527Z,7.40
2017-07-20T00:18:49.288Z,6.63
2017-07-20T00:21:17.052Z,8.50
2017-07-20T00:23:44.820Z,7.53
2017-07-20T00:26:12.581Z,8.27
2017-07-20T00:28:40.448Z,9.87
2017-07-20T00:31:08.212Z,7.43
2017-07-20T00:33:35.843Z,9.83
2017-07-20T00:36:03.552Z,9.17
2017-07-20T00:38:31.297Z,9.27
2017-07-20T00:40:59.060Z,7.80
2017-07-20T00:43:26.827Z,8.00
2017-07-20T00:45:54.590Z,7.90
2017-07-20T00:48:22.355Z,7.43
2017-07-20T00:50:50.037Z,7.60
2017-07-20T00:53:17.800Z,8.67
2017-07-20T00:55:45.545Z,6.77
2017-07-20T00:58:13.228Z,7.47
2017-07-20T01:00:41.073Z,7.13
2017-07-20T01:03:08.755Z,9.70
2017-07-20T01:05:36.608Z,8.07
2017-07-20T01:08:04.283Z,8.87
2017-07-20T01:10:32.027Z,9.17
2017-07-20T01:12:59.794Z,7.90
2017-07-20T01:15:27.564Z,8.77
2017-07-20T01:17:55.423Z,6.83
2017-07-20T01:20:23.088Z,7.60
2017-07-20T01:22:50.746Z,9.00
2017-07-20T01:25:18.414Z,7.30
2017-07-20T01:27:46.091Z,7.70
2017-07-20T01:30:13.937Z,8.97
2017-07-20T01:32:41.702Z,9.47
2017-07-20T01:35:09.386Z,7.13
2017-07-20T01:37:37.157Z,6.67
2017-07-20T01:40:04.787Z,7.93
2017-07-20T01:42:32.462Z,7.27
2017-07-20T01:45:00.104Z,9.20
2017-07-20T01:47:27.880Z,8.20
2017-07-20T01:49:55.743Z,7.93
2017-07-20T01:52:23.429Z,7.50
2017-07-20T01:54:51.169Z,10.20
2017-07-20T01:57:18.933Z,8.70
2017-07-20T01:59:46.617Z,7.73
2017-07-20T02:02:14.359Z,10.67
2017-07-20T02:04:42.124Z,9.33
2017-07-20T02:07:09.759Z,10.37
2017-07-20T02:09:37.552Z,11.30
2017-07-20T02:12:05.313Z,10.00
2017-07-20T02:14:33.080Z,10.20
2017-07-20T02:17:00.945Z,10.80
2017-07-20T02:19:28.713Z,8.63
2017-07-20T02:21:56.475Z,10.80
2017-07-20T02:24:24.142Z,10.80
2017-07-20T02:26:51.904Z,10.83
2017-07-20T02:29:19.769Z,12.23
2017-07-20T02:31:47.535Z,12.50
2017-07-20T02:34:15.297Z,11.30
2017-07-20T02:36:43.061Z,14.33
2017-07-20T02:39:10.828Z,12.70
2017-07-20T02:41:38.504Z,14.67
2017-07-20T02:44:06.172Z,13.23
2017-07-20T02:46:34.017Z,12.57
2017-07-20T02:49:01.781Z,13.00
2017-07-20T02:51:29.544Z,10.87
2017-07-20T02:53:57.337Z,11.03
2017-07-20T02:56:25.177Z,11.80
2017-07-20T02:58:53.044Z,11.03
2017-07-20T03:01:20.808Z,14.40
2017-07-20T03:03:48.467Z,13.40
2017-07-20T03:06:19.352Z,11.97
2017-07-20T03:08:47.083Z,12.87
2017-07-20T03:11:15.141Z,13.67
2017-07-20T03:13:43.006Z,13.60
2017-07-20T03:16:10.796Z,13.30
2017-07-20T03:18:38.539Z,10.80
2017-07-20T03:21:06.301Z,13.77
2017-07-20T03:23:34.165Z,14.57
2017-07-20T03:26:01.932Z,14.43
2017-07-20T03:28:29.799Z,15.20
2017-07-20T03:30:57.487Z,14.60
2017-07-20T03:33:25.328Z,15.17
2017-07-20T03:35:53.007Z,16.00
2017-07-20T03:38:21.164Z,15.77
2017-07-20T03:40:49.745Z,12.70
2017-07-20T03:43:17.432Z,10.00
2017-07-20T03:45:45.272Z,15.10
2017-07-20T03:48:12.966Z,12.73
2017-07-20T03:50:40.636Z,15.80
2017-07-20T03:53:09.191Z,14.73
2017-07-20T03:55:36.946Z,12.23
2017-07-20T03:58:04.707Z,15.60
2017-07-20T04:00:32.399Z,11.17
2017-07-20T04:03:00.236Z,13.97
2017-07-20T04:05:28.001Z,12.70
2017-07-20T04:07:55.763Z,11.73
2017-07-20T04:10:23.528Z,13.87
2017-07-20T04:12:51.296Z,12.67
2017-07-20T04:15:18.977Z,11.77
2017-07-20T04:17:46.719Z,13.40
2017-07-20T04:20:14.524Z,12.27
2017-07-20T04:22:43.070Z,11.03
2017-07-20T04:25:10.936Z,13.17
2017-07-20T04:27:38.697Z,12.40
2017-07-20T04:30:06.465Z,10.90
2017-07-20T04:32:34.257Z,11.67
2017-07-20T04:35:02.096Z,13.80
2017-07-20T04:37:29.785Z,11.70
2017-07-20T04:39:57.518Z,11.70
2017-07-20T04:42:25.388Z,12.47
2017-07-20T04:44:53.151Z,9.90
2017-07-20T04:47:20.836Z,12.23
2017-07-20T04:49:48.681Z,11.33
2017-07-20T04:52:16.445Z,14.33
2017-07-20T04:54:44.207Z,13.17
2017-07-20T04:57:11.973Z,13.83
2017-07-20T04:59:39.840Z,14.20
2017-07-20T05:02:07.603Z,10.57
2017-07-20T05:04:36.187Z,14.30
2017-07-20T05:07:03.949Z,14.07
2017-07-20T05:09:31.714Z,14.80
2017-07-20T05:11:59.584Z,11.70
2017-07-20T05:14:27.346Z,12.13
2017-07-20T05:19:26.968Z,10.40
2017-07-20T05:21:54.834Z,9.30
2017-07-20T05:24:22.536Z,12.00
2017-07-20T05:26:51.081Z,14.53
2017-07-20T05:29:18.769Z,13.00
2017-07-20T05:31:46.612Z,15.27
2017-07-20T05:34:14.375Z,16.20
2017-07-20T05:36:42.140Z,15.90
2017-07-20T05:39:09.907Z,11.90
2017-07-20T05:41:37.769Z,13.27
2017-07-20T05:44:05.534Z,10.67
2017-07-20T05:46:33.402Z,15.90
2017-07-20T05:49:01.165Z,12.30
2017-07-20T05:51:28.928Z,12.40
2017-07-20T05:53:56.611Z,13.67
2017-07-20T05:56:24.354Z,13.53
2017-07-20T05:58:52.145Z,10.77
2017-07-20T06:01:19.883Z,13.47
2017-07-20T06:03:47.648Z,13.83
2017-07-20T06:06:15.433Z,13.33
2017-07-20T06:08:43.180Z,12.50
2017-07-20T06:11:11.042Z,15.67
2017-07-20T06:13:38.908Z,13.67
2017-07-20T06:16:06.674Z,17.57
2017-07-20T06:18:34.359Z,17.93
2017-07-20T06:21:02.098Z,14.77
2017-07-20T06:23:29.966Z,15.23
2017-07-20T06:25:57.740Z,14.53
2017-07-20T06:28:25.603Z,12.50
2017-07-20T06:30:53.363Z,16.17
2017-07-20T06:33:21.229Z,16.17
2017-07-20T06:35:49.095Z,13.33
2017-07-20T06:38:16.964Z,13.50
2017-07-20T06:40:44.839Z,18.40
2017-07-20T06:43:12.594Z,13.53
2017-07-20T06:45:40.356Z,14.77
2017-07-20T06:48:08.119Z,16.27
2017-07-20T06:50:35.883Z,16.57
2017-07-20T06:53:03.573Z,16.90
2017-07-20T06:55:31.310Z,14.50
2017-07-20T06:57:59.075Z,13.90
2017-07-20T07:00:26.946Z,15.27
2017-07-20T07:02:54.943Z,16.20
2017-07-20T07:05:22.782Z,18.37
2017-07-20T07:07:50.542Z,14.93
2017-07-20T07:10:18.306Z,19.23
2017-07-20T07:12:45.992Z,13.97
2017-07-20T07:15:13.731Z,17.47
2017-07-20T07:17:41.598Z,13.57
2017-07-20T07:20:09.363Z,13.97
2017-07-20T07:22:37.148Z,13.50
2017-07-20T07:25:04.897Z,12.60
2017-07-20T07:27:32.757Z,16.50
2017-07-20T07:30:00.523Z,12.60
2017-07-20T07:32:28.288Z,13.30
2017-07-20T07:34:55.972Z,14.60
2017-07-20T07:37:23.646Z,15.07
2017-07-20T07:39:52.121Z,13.73
2017-07-20T07:42:19.854Z,13.50
2017-07-20T07:44:47.529Z,13.60
2017-07-20T07:47:15.282Z,14.30
2017-07-20T07:49:42.964Z,15.33
2017-07-20T07:52:10.814Z,13.20
2017-07-20T07:54:38.455Z,14.60
2017-07-20T07:57:06.166Z,16.10
2017-07-20T07:59:34.002Z,14.33
2017-07-20T08:02:01.867Z,12.97
2017-07-20T08:04:29.633Z,12.93
2017-07-20T08:06:57.397Z,15.67
2017-07-20T08:09:25.264Z,14.47
2017-07-20T08:11:52.942Z,14.63
2017-07-20T08:14:20.790Z,9.50
2017-07-20T08:16:48.450Z,12.63
2017-07-20T08:19:16.322Z,10.17
2017-07-20T08:21:43.973Z,12.43
2017-07-20T08:24:11.747Z,10.37
2017-07-20T08:26:39.509Z,11.97
2017-07-20T08:29:07.171Z,10.00
2017-07-20T08:31:35.038Z,10.80
2017-07-20T08:34:02.802Z,12.00
2017-07-20T08:36:30.492Z,10.37
2017-07-20T08:38:58.150Z,10.80
2017-07-20T08:41:25.796Z,11.93
2017-07-20T08:43:53.473Z,12.33
2017-07-20T08:46:21.317Z,13.50
2017-07-20T08:48:49.082Z,11.43
2017-07-20T08:51:16.846Z,11.40
2017-07-20T08:53:44.832Z,11.80
2017-07-20T08:56:12.577Z,11.43
2017-07-20T08:58:40.340Z,12.03
2017-07-20T09:01:08.210Z,12.10
2017-07-20T09:03:35.901Z,13.40
2017-07-20T09:06:03.736Z,12.17
2017-07-20T09:08:31.501Z,10.50
2017-07-20T09:10:59.367Z,9.73
2017-07-20T09:13:27.130Z,11.50
2017-07-20T09:15:54.898Z,9.70
2017-07-20T09:18:22.563Z,11.37
2017-07-20T09:20:50.424Z,9.70
2017-07-20T09:23:20.277Z,12.20
2017-07-20T09:25:48.268Z,10.33
2017-07-20T09:28:16.192Z,9.67
2017-07-20T09:30:44.062Z,9.13
2017-07-20T09:33:11.931Z,9.77
2017-07-20T09:35:41.425Z,9.90
2017-07-20T09:38:09.301Z,10.30
2017-07-20T09:40:39.469Z,12.40
2017-07-20T09:43:07.492Z,9.00
2017-07-20T09:45:37.347Z,9.70
2017-07-20T09:48:05.375Z,10.07
2017-07-20T09:50:33.120Z,9.60
2017-07-20T09:53:00.988Z,8.10
2017-07-20T09:55:28.667Z,10.47
2017-07-20T09:57:57.947Z,10.00
2017-07-20T10:00:25.631Z,11.20
2017-07-20T10:02:53.578Z,10.27
2017-07-20T10:05:21.345Z,11.17
2017-07-20T10:07:49.109Z,12.40
2017-07-20T10:10:16.974Z,12.00
2017-07-20T10:12:44.753Z,10.60
2017-07-20T10:15:12.604Z,10.30
2017-07-20T10:17:40.368Z,11.83
2017-07-20T10:20:08.353Z,11.50
2017-07-20T10:22:36.214Z,13.00
2017-07-20T10:25:04.074Z,14.80
2017-07-20T10:27:31.957Z,12.30
2017-07-20T10:29:59.819Z,13.27
2017-07-20T10:32:27.789Z,12.80
2017-07-20T10:34:55.554Z,11.70
2017-07-20T10:37:23.405Z,13.10
2017-07-20T10:39:51.181Z,13.67
2017-07-20T10:42:19.152Z,12.30
2017-07-20T10:44:47.127Z,13.47
2017-07-20T10:47:14.990Z,12.80
2017-07-20T10:49:43.582Z,12.90
2017-07-20T10:52:14.332Z,12.23
2017-07-20T10:54:42.472Z,14.67
2017-07-20T10:57:10.919Z,13.53
2017-07-20T10:59:38.627Z,13.70
2017-07-20T11:02:06.476Z,13.30
2017-07-20T11:04:34.238Z,14.43
2017-07-20T11:07:01.921Z,11.90
2017-07-20T11:09:29.666Z,14.70
2017-07-20T11:11:57.531Z,13.13
2017-07-20T11:14:25.535Z,11.80
2017-07-20T11:16:54.108Z,11.60
2017-07-20T11:19:21.952Z,11.93
2017-07-20T11:21:49.631Z,12.17
2017-07-20T11:24:17.478Z,10.67
2017-07-20T11:26:46.618Z,11.20
2017-07-20T11:29:14.441Z,11.77
2017-07-20T11:31:42.127Z,10.30
2017-07-20T11:34:09.867Z,10.63
2017-07-20T11:36:37.632Z,10.37
2017-07-20T11:39:05.315Z,10.17
2017-07-20T11:41:33.159Z,9.30
2017-07-20T11:44:00.878Z,11.20
2017-07-20T11:46:28.809Z,9.90
2017-07-20T11:48:56.559Z,10.07
2017-07-20T11:51:24.319Z,10.27
2017-07-20T11:53:52.005Z,9.10
2017-07-20T11:56:19.744Z,9.80
2017-07-20T11:58:47.610Z,10.07
2017-07-20T12:01:15.377Z,11.00
2017-07-20T12:03:43.654Z,9.20
2017-07-20T12:06:11.423Z,10.80
2017-07-20T12:08:39.099Z,10.80
2017-07-20T12:11:06.947Z,9.13
2017-07-20T12:13:34.711Z,8.57
2017-07-20T12:16:02.682Z,8.97
2017-07-20T12:18:30.443Z,8.67
2017-07-20T12:20:58.209Z,9.27
2017-07-20T12:23:25.975Z,8.13
2017-07-20T12:25:53.836Z,8.10
2017-07-20T12:28:21.728Z,10.07
2017-07-20T12:30:49.468Z,10.87
2017-07-20T12:33:17.274Z,10.80
2017-07-20T12:35:45.815Z,9.17
2017-07-20T12:38:13.478Z,8.57
2017-07-20T12:40:41.347Z,7.33
2017-07-20T12:43:09.108Z,9.37
2017-07-20T12:45:36.993Z,7.90
2017-07-20T12:48:04.738Z,8.40
2017-07-20T12:50:32.421Z,8.13
2017-07-20T12:53:00.287Z,9.47
2017-07-20T12:55:28.591Z,9.03
2017-07-20T12:57:58.721Z,10.03
2017-07-20T13:00:26.751Z,8.90
2017-07-20T13:02:54.619Z,8.90
2017-07-20T13:05:22.367Z,9.40
2017-07-20T13:07:50.238Z,8.67
2017-07-20T13:10:17.998Z,8.67
2017-07-20T13:12:45.809Z,10.33
2017-07-20T13:15:14.347Z,8.10
2017-07-20T13:17:42.008Z,9.50
2017-07-20T13:20:09.776Z,9.93
2017-07-20T13:22:37.538Z,8.70
2017-07-20T13:25:05.404Z,8.47
2017-07-20T13:27:33.065Z,9.30
2017-07-20T13:30:00.754Z,9.30
2017-07-20T13:32:28.595Z,7.40
2017-07-20T13:34:56.357Z,8.83
2017-07-20T13:37:24.121Z,8.53
2017-07-20T13:39:51.886Z,8.03
2017-07-20T13:42:19.752Z,8.80
2017-07-20T13:44:47.517Z,8.63
2017-07-20T13:47:15.283Z,8.70
2017-07-20T13:49:43.045Z,7.50
2017-07-20T13:52:10.816Z,8.20
2017-07-20T13:54:38.668Z,7.63
2017-07-20T13:57:06.443Z,7.37
2017-07-20T13:59:34.205Z,6.80
2017-07-20T14:02:01.889Z,6.10
2017-07-20T14:04:29.519Z,6.47
2017-07-20T14:06:57.295Z,7.60
2017-07-20T14:09:25.057Z,6.93
2017-07-20T14:11:52.819Z,6.10
2017-07-20T14:14:20.448Z,6.00
2017-07-20T14:16:48.248Z,6.20
2017-07-20T14:19:16.017Z,6.70
2017-07-20T14:21:43.776Z,6.10
2017-07-20T14:24:11.461Z,5.87
2017-07-20T14:26:39.304Z,4.70
2017-07-20T14:29:07.068Z,4.47
2017-07-20T14:31:34.731Z,6.63
2017-07-20T14:34:02.602Z,4.33
2017-07-20T14:36:30.363Z,4.90
2017-07-20T14:38:58.127Z,4.80
2017-07-20T14:41:25.994Z,4.90
2017-07-20T14:43:53.756Z,4.90
2017-07-20T14:46:21.524Z,4.27
2017-07-20T14:48:50.003Z,3.93
2017-07-20T14:51:17.868Z,4.00
2017-07-20T14:53:45.632Z,4.90
2017-07-20T14:56:13.297Z,5.13
2017-07-20T14:58:41.162Z,4.80
2017-07-20T15:01:08.823Z,4.20
2017-07-20T15:03:36.484Z,4.53
2017-07-20T15:06:04.251Z,4.43
2017-07-20T15:08:31.937Z,5.17
2017-07-20T15:10:59.780Z,4.00
2017-07-20T15:13:27.544Z,4.67
2017-07-20T15:15:55.408Z,4.60
2017-07-20T15:18:23.173Z,5.90
2017-07-20T15:20:50.936Z,4.33
2017-07-20T15:23:18.804Z,4.93
2017-07-20T15:25:46.569Z,4.80
2017-07-20T15:28:14.451Z,5.33
2017-07-20T15:30:42.199Z,4.70
2017-07-20T15:33:09.885Z,4.80
2017-07-20T15:35:37.625Z,5.37
2017-07-20T15:38:05.296Z,4.80
2017-07-20T15:40:32.946Z,5.30
2017-07-20T15:43:00.630Z,5.60
2017-07-20T15:45:28.376Z,4.83
2017-07-20T15:47:56.144Z,5.73
2017-07-20T15:50:24.007Z,6.30
2017-07-20T15:52:51.665Z,6.13
2017-07-20T15:55:19.438Z,5.33
2017-07-20T15:57:47.110Z,6.03
2017-07-20T16:00:14.961Z,5.47
2017-07-20T16:02:42.621Z,5.60
2017-07-20T16:05:10.304Z,6.30
2017-07-20T16:07:38.152Z,6.73
2017-07-20T16:10:05.835Z,6.23
2017-07-20T16:12:33.681Z,5.77
2017-07-20T16:15:01.446Z,6.27
2017-07-20T16:17:29.208Z,6.33
2017-07-20T16:19:56.887Z,7.13
2017-07-20T16:22:24.632Z,6.67
2017-07-20T16:24:52.398Z,7.57
2017-07-20T16:27:20.085Z,6.00
2017-07-20T16:29:47.927Z,6.60
2017-07-20T16:32:15.613Z,6.13
2017-07-20T16:34:43.457Z,5.40
2017-07-20T16:37:11.222Z,6.37
2017-07-20T16:39:39.103Z,6.53
2017-07-20T16:42:06.955Z,5.57
2017-07-20T16:44:34.730Z,5.27
2017-07-20T16:47:02.700Z,6.43
2017-07-20T16:49:30.468Z,6.60
2017-07-20T16:51:58.331Z,6.50
2017-07-20T16:54:26.142Z,7.40
2017-07-20T16:56:53.964Z,6.30
2017-07-20T16:59:21.839Z,6.00
2017-07-20T17:01:49.695Z,6.53
2017-07-20T17:04:17.503Z,6.40
2017-07-20T17:06:45.311Z,6.73
2017-07-20T17:09:13.081Z,5.93
2017-07-20T17:11:41.071Z,5.73
2017-07-20T17:14:08.812Z,7.37
2017-07-20T17:16:36.676Z,5.77
2017-07-20T17:19:04.557Z,5.77
2017-07-20T17:21:32.420Z,6.77
2017-07-20T17:24:00.298Z,6.70
2017-07-20T17:26:28.162Z,6.60
2017-07-20T17:28:56.022Z,6.03
2017-07-20T17:31:23.772Z,6.03
2017-07-20T17:33:51.638Z,6.33
2017-07-20T17:36:19.509Z,5.53
2017-07-20T17:38:47.375Z,7.30
2017-07-20T17:41:15.088Z,7.10
2017-07-20T17:43:42.853Z,6.43
2017-07-20T17:46:11.272Z,7.23
2017-07-20T17:48:39.047Z,7.03
2017-07-20T17:51:06.937Z,6.30
2017-07-20T17:53:34.676Z,6.20
2017-07-20T17:56:02.541Z,6.60
2017-07-20T17:58:30.308Z,7.60
2017-07-20T18:00:58.185Z,6.80
2017-07-20T18:03:26.058Z,7.10
2017-07-20T18:05:53.929Z,6.10
2017-07-20T18:08:21.793Z,6.53
2017-07-20T18:10:50.508Z,6.90
2017-07-20T18:13:18.637Z,7.00
2017-07-20T18:15:46.421Z,7.50
2017-07-20T18:18:16.908Z,7.43
2017-07-20T18:20:44.895Z,7.00
2017-07-20T18:23:12.558Z,7.70
2017-07-20T18:25:40.324Z,7.30
2017-07-20T18:28:08.084Z,5.97
2017-07-20T18:30:35.955Z,5.20
2017-07-20T18:33:03.670Z,4.93
2017-07-20T18:35:31.480Z,5.10
2017-07-20T18:37:59.247Z,5.20
2017-07-20T18:40:27.015Z,5.30
2017-07-20T18:42:54.876Z,4.80
2017-07-20T18:45:22.643Z,4.30
2017-07-20T18:47:50.405Z,5.17
2017-07-20T18:50:18.169Z,4.47
2017-07-20T18:52:45.851Z,4.10
2017-07-20T18:55:13.631Z,4.40
2017-07-20T18:57:42.181Z,4.00
2017-07-20T19:00:10.270Z,4.77
2017-07-20T19:02:38.429Z,4.07
2017-07-20T19:05:09.049Z,4.27
2017-07-20T19:07:37.065Z,4.07
2017-07-20T19:10:05.516Z,4.50
2017-07-20T19:12:33.474Z,3.87
2017-07-20T19:15:01.107Z,3.30
2017-07-20T19:17:28.905Z,4.50
2017-07-20T19:19:56.756Z,3.50
2017-07-20T19:22:24.655Z,3.50
2017-07-20T19:24:52.501Z,3.83
2017-07-20T19:27:20.274Z,3.63
2017-07-20T19:29:48.136Z,3.33
2017-07-20T19:32:15.824Z,3.90
2017-07-20T19:37:23.304Z,2.93
2017-07-20T19:39:51.933Z,3.77
2017-07-20T19:42:19.961Z,3.90
2017-07-20T19:44:47.724Z,3.97
2017-07-20T19:47:15.588Z,3.70
2017-07-20T19:49:43.251Z,3.57
2017-07-20T19:52:11.045Z,3.00
2017-07-20T19:54:39.012Z,5.23
2017-07-20T19:57:06.873Z,4.00
2017-07-20T19:59:34.720Z,4.03
2017-07-20T20:02:02.605Z,3.90
2017-07-20T20:04:30.350Z,4.20
2017-07-20T20:06:58.216Z,3.87
2017-07-20T20:09:26.521Z,3.90
2017-07-20T20:11:54.359Z,3.90
2017-07-20T20:14:22.021Z,3.37
2017-07-20T20:16:49.785Z,3.70
2017-07-20T20:19:18.371Z,3.70
2017-07-20T20:21:46.132Z,4.10
2017-07-20T20:24:13.820Z,3.20
2017-07-20T20:26:41.611Z,4.00
2017-07-20T20:29:09.424Z,5.30
2017-07-20T20:31:37.193Z,4.53
2017-07-20T20:34:05.057Z,4.90
2017-07-20T20:36:32.718Z,4.13
2017-07-20T20:39:00.493Z,3.97
2017-07-20T20:41:28.451Z,3.70
2017-07-20T20:43:56.216Z,4.53
2017-07-20T20:46:23.984Z,5.13
2017-07-20T20:48:51.982Z,4.30
2017-07-20T20:51:19.934Z,4.70
2017-07-20T20:53:47.888Z,4.50
2017-07-20T20:56:15.648Z,4.73
2017-07-20T20:58:43.536Z,5.20
2017-07-20T21:01:11.363Z,5.70
2017-07-20T21:03:39.273Z,4.73
2017-07-20T21:06:06.965Z,5.17
2017-07-20T21:08:35.532Z,4.40
2017-07-20T21:11:04.173Z,4.73
2017-07-20T21:13:32.172Z,5.03
2017-07-20T21:16:00.030Z,5.50
2017-07-20T21:18:27.783Z,5.00
2017-07-20T21:20:55.650Z,4.93
2017-07-20T21:23:23.539Z,4.57
2017-07-20T21:25:51.396Z,5.83
2017-07-20T21:28:19.268Z,4.87
2017-07-20T21:30:47.135Z,5.90
2017-07-20T21:33:14.994Z,4.73
2017-07-20T21:35:42.721Z,5.23
2017-07-20T21:38:10.515Z,5.10
2017-07-20T21:40:38.277Z,5.00
2017-07-20T21:43:06.051Z,4.70
2017-07-20T21:45:34.010Z,5.17
2017-07-20T21:48:01.876Z,4.53
2017-07-20T21:50:29.757Z,4.30
2017-07-20T21:52:57.625Z,4.90
2017-07-20T21:55:25.503Z,4.40
2017-07-20T21:57:53.370Z,4.73
2017-07-20T22:00:21.133Z,4.60
2017-07-20T22:02:48.928Z,4.30
2017-07-20T22:05:16.739Z,4.00
2017-07-20T22:07:44.505Z,5.03
2017-07-20T22:10:12.306Z,5.67
2017-07-20T22:12:40.866Z,6.10
2017-07-20T22:15:08.717Z,5.30
2017-07-20T22:17:36.483Z,5.03
2017-07-20T22:20:04.352Z,4.43
2017-07-20T22:22:32.114Z,5.53
2017-07-20T22:24:59.879Z,5.30
2017-07-20T22:27:27.762Z,4.83
2017-07-20T22:29:55.632Z,4.83
2017-07-20T22:32:23.491Z,5.53
2017-07-20T22:34:51.366Z,5.60
2017-07-20T22:37:19.227Z,5.37
2017-07-20T22:39:47.077Z,5.03
2017-07-20T22:42:14.946Z,4.57
2017-07-20T22:44:42.668Z,5.20
2017-07-20T22:47:10.422Z,5.57
2017-07-20T22:49:39.071Z,5.30
2017-07-20T22:52:06.840Z,5.60
2017-07-20T22:54:34.691Z,5.20
2017-07-20T22:57:02.562Z,5.67
2017-07-20T22:59:30.359Z,5.43
2017-07-20T23:01:58.900Z,5.30
2017-07-20T23:04:26.775Z,6.70
2017-07-20T23:06:54.637Z,7.03
2017-07-20T23:09:22.519Z,5.30
2017-07-20T23:11:50.384Z,6.00
2017-07-20T23:14:18.355Z,4.87
2017-07-20T23:16:46.223Z,4.87
2017-07-20T23:19:14.089Z,4.67
2017-07-20T23:21:41.797Z,4.83
2017-07-20T23:24:09.555Z,4.60
2017-07-20T23:26:37.303Z,5.00
2017-07-20T23:29:05.962Z,4.97
2017-07-20T23:31:33.790Z,4.77
2017-07-20T23:34:01.590Z,4.80
2017-07-20T23:36:29.450Z,5.67
2017-07-20T23:38:57.210Z,4.37
2017-07-20T23:41:24.980Z,5.07
2017-07-20T23:43:52.736Z,5.57
2017-07-20T23:46:20.607Z,4.90
2017-07-20T23:48:48.423Z,6.30
2017-07-20T23:51:17.057Z,5.83
2017-07-20T23:53:44.873Z,6.27
2017-07-20T23:56:12.584Z,6.30
2017-07-20T23:58:40.396Z,6.00
